Fort Myers, FL (33913)

2:45 PM EDT on September 01, 2015 (GMT -0400)
St Moritz | | Change Station
CLOSE
Current Station
Personal Weather Station
Location: Miromar Lakes, FL
Elevation: 21 ft
Nearby Weather Stations

Elev 21 ft 26.48 °N, 81.79 °W | Updated 33 seconds ago

Rain
Rain
86.7 °F
Feels Like 105 °F
N
0.9
Wind Variable Wind from ESE
Gusts 2.5 mph

Today
High -- | Low -- °F
--% Chance of Precip.
Yesterday
High -- | Low -- °F
Precip. -- in
7:06 AM 7:47 PM
Waning Gibbous, 87% visible
Pressure 30.06 in
Visibility 10.0 miles
Clouds Few 4000 ft
Heat Index 105 °F
Dew Point 82 °F
Humidity 86%
Rainfall 0.04 in
Snow Depth Not available.
UV 2.0 out of 12
Pollen 4.80 out of 12
Air Quality Not available.
Flu Activity Not available.
METAR KRSW 011753Z VRB03KT 10SM FEW040 32/23 A3007 RMK AO2 SLP179 T03220233 10333 20244 58007
Pressure 30.06 in
Visibility 10.0 miles
Clouds Few 4000 ft
Heat Index 105 °F
Dew Point 82 °F
Humidity 86%
Rainfall 0.04 in
Snow Depth Not available.
UV 2.0 out of 12
Pollen 4.80 out of 12
Air Quality Not available.
Flu Activity Not available.
METAR KRSW 011753Z VRB03KT 10SM FEW040 32/23 A3007 RMK AO2 SLP179 T03220233 10333 20244 58007

10-Day Weather Forecast

×

Almanac

Astronomy

Sep. 01, 2015 Rise Set
Actual Time
Civil Twilight
Nautical Twilight
Astronomical Twilight
Moon
Length of Visible Light
Length of Day
Tomorrow will be .
, % of the Moon is Illuminated

Today's Extremes

State Highs State Lows

Community

WunderPhotos

Upload Photos

1,851,593 photos uploaded!

WunderBlogs® & News

Nearby

Air Quality

  Air Quality AQ Index Pollutant
Not available.

Snow Depth

Station Depth Elevation

Earthquake Activity

City Distance Mag. Time & Date
Minimum magnitude displayed is 2.5.

Coastal Water Temperatures

Place Temperature

Stations

Nearby Weather Stations

Station Location Temp. Windchill Dew Point Humidity Wind Precip. Elev Updated Type